sensor_id;sensor_type;location;lat;lon;timestamp;P1;durP1;ratioP1;P2;durP2;ratioP2
48987;SDS011;34799;51.440;-2.534;2023-11-18T00:01:12;3.03;;;0.30;;
48987;SDS011;34799;51.440;-2.534;2023-11-18T00:03:40;2.00;;;0.40;;
48987;SDS011;34799;51.440;-2.534;2023-11-18T00:06:07;3.35;;;0.30;;
48987;SDS011;34799;51.440;-2.534;2023-11-18T00:08:35;2.78;;;0.35;;
48987;SDS011;34799;51.440;-2.534;2023-11-18T00:11:02;2.70;;;0.30;;
48987;SDS011;34799;51.440;-2.534;2023-11-18T00:13:30;3.05;;;0.30;;
48987;SDS011;34799;51.440;-2.534;2023-11-18T00:15:57;1.35;;;0.30;;
48987;SDS011;34799;51.440;-2.534;2023-11-18T00:18:25;1.88;;;0.30;;
48987;SDS011;34799;51.440;-2.534;2023-11-18T00:20:53;2.17;;;0.32;;
48987;SDS011;34799;51.440;-2.534;2023-11-18T00:23:20;2.30;;;0.35;;
48987;SDS011;34799;51.440;-2.534;2023-11-18T00:25:48;2.45;;;0.47;;
48987;SDS011;34799;51.440;-2.534;2023-11-18T00:28:15;1.02;;;0.20;;
48987;SDS011;34799;51.440;-2.534;2023-11-18T00:30:46;0.60;;;0.22;;
48987;SDS011;34799;51.440;-2.534;2023-11-18T00:33:14;2.70;;;0.25;;
48987;SDS011;34799;51.440;-2.534;2023-11-18T00:35:41;1.27;;;0.20;;
48987;SDS011;34799;51.440;-2.534;2023-11-18T00:38:09;1.92;;;0.30;;
48987;SDS011;34799;51.440;-2.534;2023-11-18T00:40:36;1.98;;;0.30;;
48987;SDS011;34799;51.440;-2.534;2023-11-18T00:43:04;0.88;;;0.13;;
48987;SDS011;34799;51.440;-2.534;2023-11-18T00:45:31;1.92;;;0.20;;
48987;SDS011;34799;51.440;-2.534;2023-11-18T00:48:00;1.10;;;0.20;;
48987;SDS011;34799;51.440;-2.534;2023-11-18T00:50:29;1.40;;;0.20;;
48987;SDS011;34799;51.440;-2.534;2023-11-18T00:52:56;1.15;;;0.30;;
48987;SDS011;34799;51.440;-2.534;2023-11-18T00:55:25;1.02;;;0.47;;
48987;SDS011;34799;51.440;-2.534;2023-11-18T00:57:53;2.47;;;0.30;;
48987;SDS011;34799;51.440;-2.534;2023-11-18T01:00:21;1.90;;;0.20;;
48987;SDS011;34799;51.440;-2.534;2023-11-18T01:02:49;1.35;;;0.10;;
48987;SDS011;34799;51.440;-2.534;2023-11-18T01:05:19;0.75;;;0.10;;
48987;SDS011;34799;51.440;-2.534;2023-11-18T01:07:47;1.55;;;0.10;;
48987;SDS011;34799;51.440;-2.534;2023-11-18T01:10:16;1.92;;;0.10;;
48987;SDS011;34799;51.440;-2.534;2023-11-18T01:12:44;0.60;;;0.17;;
48987;SDS011;34799;51.440;-2.534;2023-11-18T01:15:12;1.98;;;0.03;;
48987;SDS011;34799;51.440;-2.534;2023-11-18T01:17:41;1.35;;;0.17;;
48987;SDS011;34799;51.440;-2.534;2023-11-18T01:20:09;0.98;;;0.10;;
48987;SDS011;34799;51.440;-2.534;2023-11-18T01:22:38;0.63;;;0.10;;
48987;SDS011;34799;51.440;-2.534;2023-11-18T01:25:07;1.40;;;0.10;;
48987;SDS011;34799;51.440;-2.534;2023-11-18T01:27:35;1.85;;;0.10;;
48987;SDS011;34799;51.440;-2.534;2023-11-18T01:30:03;0.20;;;0.00;;
48987;SDS011;34799;51.440;-2.534;2023-11-18T01:32:32;4.05;;;0.10;;
48987;SDS011;34799;51.440;-2.534;2023-11-18T01:35:00;2.15;;;0.10;;
48987;SDS011;34799;51.440;-2.534;2023-11-18T01:37:27;0.90;;;0.00;;
48987;SDS011;34799;51.440;-2.534;2023-11-18T01:39:54;2.50;;;0.05;;
48987;SDS011;34799;51.440;-2.534;2023-11-18T01:42:21;0.75;;;0.40;;
48987;SDS011;34799;51.440;-2.534;2023-11-18T01:44:48;0.45;;;0.00;;
48987;SDS011;34799;51.440;-2.534;2023-11-18T01:47:15;0.98;;;0.10;;
48987;SDS011;34799;51.440;-2.534;2023-11-18T01:49:43;0.98;;;0.03;;
48987;SDS011;34799;51.440;-2.534;2023-11-18T01:52:11;0.32;;;0.00;;
48987;SDS011;34799;51.440;-2.534;2023-11-18T01:54:40;1.38;;;0.00;;
48987;SDS011;34799;51.440;-2.534;2023-11-18T01:57:07;0.10;;;0.00;;
48987;SDS011;34799;51.440;-2.534;2023-11-18T01:59:37;0.30;;;0.00;;
48987;SDS011;34799;51.440;-2.534;2023-11-18T02:02:07;0.40;;;0.00;;
48987;SDS011;34799;51.440;-2.534;2023-11-18T02:04:35;0.47;;;0.00;;
48987;SDS011;34799;51.440;-2.534;2023-11-18T02:07:03;1.02;;;0.00;;
48987;SDS011;34799;51.440;-2.534;2023-11-18T02:09:35;0.20;;;0.15;;
48987;SDS011;34799;51.440;-2.534;2023-11-18T02:14:50;0.85;;;0.05;;
48987;SDS011;34799;51.440;-2.534;2023-11-18T02:17:20;0.95;;;0.00;;
48987;SDS011;34799;51.440;-2.534;2023-11-18T02:19:56;0.22;;;0.10;;
48987;SDS011;34799;51.440;-2.534;2023-11-18T02:22:24;0.88;;;0.10;;
48987;SDS011;34799;51.440;-2.534;2023-11-18T02:24:52;2.20;;;0.00;;
48987;SDS011;34799;51.440;-2.534;2023-11-18T02:27:20;1.38;;;0.10;;
48987;SDS011;34799;51.440;-2.534;2023-11-18T02:29:48;1.00;;;0.10;;
48987;SDS011;34799;51.440;-2.534;2023-11-18T02:32:31;0.15;;;0.15;;
48987;SDS011;34799;51.440;-2.534;2023-11-18T02:35:09;0.00;;;0.00;;
48987;SDS011;34799;51.440;-2.534;2023-11-18T02:37:45;1.85;;;0.00;;
48987;SDS011;34799;51.440;-2.534;2023-11-18T02:40:24;0.10;;;0.00;;
48987;SDS011;34799;51.440;-2.534;2023-11-18T02:42:58;0.65;;;0.03;;
48987;SDS011;34799;51.440;-2.534;2023-11-18T02:45:27;0.75;;;0.00;;
48987;SDS011;34799;51.440;-2.534;2023-11-18T02:47:57;0.08;;;0.00;;
48987;SDS011;34799;51.440;-2.534;2023-11-18T02:50:25;2.35;;;0.00;;
48987;SDS011;34799;51.440;-2.534;2023-11-18T02:52:54;0.00;;;0.00;;
48987;SDS011;34799;51.440;-2.534;2023-11-18T02:55:22;0.00;;;0.00;;
48987;SDS011;34799;51.440;-2.534;2023-11-18T02:57:51;1.02;;;0.00;;
48987;SDS011;34799;51.440;-2.534;2023-11-18T03:00:19;1.08;;;0.00;;
48987;SDS011;34799;51.440;-2.534;2023-11-18T03:02:49;0.30;;;0.00;;
48987;SDS011;34799;51.440;-2.534;2023-11-18T03:05:18;0.00;;;0.00;;
48987;SDS011;34799;51.440;-2.534;2023-11-18T03:07:46;0.00;;;0.00;;
48987;SDS011;34799;51.440;-2.534;2023-11-18T03:10:16;0.00;;;0.00;;
48987;SDS011;34799;51.440;-2.534;2023-11-18T03:12:52;0.20;;;0.00;;
48987;SDS011;34799;51.440;-2.534;2023-11-18T03:15:23;0.50;;;0.20;;
48987;SDS011;34799;51.440;-2.534;2023-11-18T03:17:52;0.00;;;0.00;;
48987;SDS011;34799;51.440;-2.534;2023-11-18T03:20:21;0.20;;;0.00;;
48987;SDS011;34799;51.440;-2.534;2023-11-18T03:22:50;0.85;;;0.00;;
48987;SDS011;34799;51.440;-2.534;2023-11-18T03:25:18;0.28;;;0.00;;
48987;SDS011;34799;51.440;-2.534;2023-11-18T03:27:48;0.25;;;0.00;;
48987;SDS011;34799;51.440;-2.534;2023-11-18T03:30:15;0.38;;;0.00;;
48987;SDS011;34799;51.440;-2.534;2023-11-18T03:32:43;0.20;;;0.00;;
48987;SDS011;34799;51.440;-2.534;2023-11-18T03:35:10;0.45;;;0.00;;
48987;SDS011;34799;51.440;-2.534;2023-11-18T03:37:39;0.00;;;0.00;;
48987;SDS011;34799;51.440;-2.534;2023-11-18T03:40:10;1.85;;;0.00;;
48987;SDS011;34799;51.440;-2.534;2023-11-18T03:42:40;1.05;;;0.00;;
48987;SDS011;34799;51.440;-2.534;2023-11-18T03:45:08;0.28;;;0.00;;
48987;SDS011;34799;51.440;-2.534;2023-11-18T03:47:39;0.75;;;0.00;;
48987;SDS011;34799;51.440;-2.534;2023-11-18T03:50:06;0.22;;;0.17;;
48987;SDS011;34799;51.440;-2.534;2023-11-18T03:52:38;0.13;;;0.00;;
48987;SDS011;34799;51.440;-2.534;2023-11-18T03:55:06;0.75;;;0.00;;
48987;SDS011;34799;51.440;-2.534;2023-11-18T03:57:35;1.65;;;0.00;;
48987;SDS011;34799;51.440;-2.534;2023-11-18T04:00:03;0.50;;;0.00;;
48987;SDS011;34799;51.440;-2.534;2023-11-18T04:02:39;1.13;;;0.00;;
48987;SDS011;34799;51.440;-2.534;2023-11-18T04:05:06;0.00;;;0.00;;
48987;SDS011;34799;51.440;-2.534;2023-11-18T04:07:34;0.20;;;0.10;;
48987;SDS011;34799;51.440;-2.534;2023-11-18T04:10:01;0.10;;;0.00;;
48987;SDS011;34799;51.440;-2.534;2023-11-18T04:12:29;2.50;;;0.10;;
48987;SDS011;34799;51.440;-2.534;2023-11-18T04:14:58;0.45;;;0.00;;
48987;SDS011;34799;51.440;-2.534;2023-11-18T04:17:25;0.60;;;0.00;;
48987;SDS011;34799;51.440;-2.534;2023-11-18T04:19:56;1.25;;;0.03;;
48987;SDS011;34799;51.440;-2.534;2023-11-18T04:22:23;0.55;;;0.00;;
48987;SDS011;34799;51.440;-2.534;2023-11-18T04:24:51;0.95;;;0.00;;
48987;SDS011;34799;51.440;-2.534;2023-11-18T04:27:19;0.60;;;0.00;;
48987;SDS011;34799;51.440;-2.534;2023-11-18T04:29:46;0.00;;;0.00;;
48987;SDS011;34799;51.440;-2.534;2023-11-18T04:32:15;0.68;;;0.00;;
48987;SDS011;34799;51.440;-2.534;2023-11-18T04:34:43;2.20;;;0.00;;
48987;SDS011;34799;51.440;-2.534;2023-11-18T04:37:10;2.20;;;0.13;;
48987;SDS011;34799;51.440;-2.534;2023-11-18T04:39:37;0.95;;;0.00;;
48987;SDS011;34799;51.440;-2.534;2023-11-18T04:42:04;0.25;;;0.00;;
48987;SDS011;34799;51.440;-2.534;2023-11-18T04:44:32;0.82;;;0.05;;
48987;SDS011;34799;51.440;-2.534;2023-11-18T04:46:59;0.50;;;0.00;;
48987;SDS011;34799;51.440;-2.534;2023-11-18T04:49:29;0.40;;;0.10;;
48987;SDS011;34799;51.440;-2.534;2023-11-18T04:51:56;0.57;;;0.10;;
48987;SDS011;34799;51.440;-2.534;2023-11-18T04:54:26;1.33;;;0.10;;
48987;SDS011;34799;51.440;-2.534;2023-11-18T04:56:53;0.90;;;0.10;;
48987;SDS011;34799;51.440;-2.534;2023-11-18T04:59:22;1.10;;;0.20;;
48987;SDS011;34799;51.440;-2.534;2023-11-18T05:01:50;1.60;;;0.20;;
48987;SDS011;34799;51.440;-2.534;2023-11-18T05:04:19;1.38;;;0.10;;
48987;SDS011;34799;51.440;-2.534;2023-11-18T05:06:47;2.85;;;0.75;;
48987;SDS011;34799;51.440;-2.534;2023-11-18T05:09:16;1.88;;;0.50;;
48987;SDS011;34799;51.440;-2.534;2023-11-18T05:11:45;2.15;;;0.20;;
48987;SDS011;34799;51.440;-2.534;2023-11-18T05:14:13;1.55;;;0.20;;
48987;SDS011;34799;51.440;-2.534;2023-11-18T05:16:44;0.80;;;0.20;;
48987;SDS011;34799;51.440;-2.534;2023-11-18T05:19:11;2.17;;;0.98;;
48987;SDS011;34799;51.440;-2.534;2023-11-18T05:21:39;2.15;;;0.20;;
48987;SDS011;34799;51.440;-2.534;2023-11-18T05:24:07;1.70;;;0.30;;
48987;SDS011;34799;51.440;-2.534;2023-11-18T05:26:36;2.45;;;0.30;;
48987;SDS011;34799;51.440;-2.534;2023-11-18T05:29:04;5.35;;;0.40;;
48987;SDS011;34799;51.440;-2.534;2023-11-18T05:31:33;1.42;;;0.30;;
48987;SDS011;34799;51.440;-2.534;2023-11-18T05:34:01;2.00;;;0.40;;
48987;SDS011;34799;51.440;-2.534;2023-11-18T05:36:29;3.03;;;0.35;;
48987;SDS011;34799;51.440;-2.534;2023-11-18T05:39:03;1.75;;;0.25;;
48987;SDS011;34799;51.440;-2.534;2023-11-18T05:41:31;1.27;;;0.20;;
48987;SDS011;34799;51.440;-2.534;2023-11-18T05:44:01;2.85;;;0.20;;
48987;SDS011;34799;51.440;-2.534;2023-11-18T05:46:28;2.55;;;0.52;;
48987;SDS011;34799;51.440;-2.534;2023-11-18T05:48:56;1.55;;;0.10;;
48987;SDS011;34799;51.440;-2.534;2023-11-18T05:51:25;2.58;;;0.20;;
48987;SDS011;34799;51.440;-2.534;2023-11-18T05:53:53;3.33;;;0.10;;
48987;SDS011;34799;51.440;-2.534;2023-11-18T05:56:20;2.13;;;0.20;;
48987;SDS011;34799;51.440;-2.534;2023-11-18T05:58:49;4.30;;;0.30;;
48987;SDS011;34799;51.440;-2.534;2023-11-18T06:01:17;2.20;;;0.43;;
48987;SDS011;34799;51.440;-2.534;2023-11-18T06:03:47;2.53;;;0.75;;
48987;SDS011;34799;51.440;-2.534;2023-11-18T06:06:15;5.22;;;0.45;;
48987;SDS011;34799;51.440;-2.534;2023-11-18T06:08:44;2.72;;;0.20;;
48987;SDS011;34799;51.440;-2.534;2023-11-18T06:11:13;1.63;;;0.10;;
48987;SDS011;34799;51.440;-2.534;2023-11-18T06:13:43;2.42;;;0.20;;
48987;SDS011;34799;51.440;-2.534;2023-11-18T06:16:13;1.77;;;0.20;;
48987;SDS011;34799;51.440;-2.534;2023-11-18T06:18:47;1.40;;;0.20;;
48987;SDS011;34799;51.440;-2.534;2023-11-18T06:21:17;4.32;;;0.17;;
48987;SDS011;34799;51.440;-2.534;2023-11-18T06:23:46;2.35;;;0.13;;
48987;SDS011;34799;51.440;-2.534;2023-11-18T06:26:14;1.65;;;0.20;;
48987;SDS011;34799;51.440;-2.534;2023-11-18T06:28:43;1.33;;;0.10;;
48987;SDS011;34799;51.440;-2.534;2023-11-18T06:31:11;1.85;;;0.20;;
48987;SDS011;34799;51.440;-2.534;2023-11-18T06:33:42;0.50;;;0.00;;
48987;SDS011;34799;51.440;-2.534;2023-11-18T06:38:41;0.50;;;0.20;;
48987;SDS011;34799;51.440;-2.534;2023-11-18T06:41:08;1.20;;;0.10;;
48987;SDS011;34799;51.440;-2.534;2023-11-18T06:43:39;0.10;;;0.00;;
48987;SDS011;34799;51.440;-2.534;2023-11-18T06:46:22;1.73;;;0.00;;
48987;SDS011;34799;51.440;-2.534;2023-11-18T06:48:52;0.45;;;0.05;;
48987;SDS011;34799;51.440;-2.534;2023-11-18T06:51:25;1.85;;;0.20;;
48987;SDS011;34799;51.440;-2.534;2023-11-18T06:53:55;1.75;;;0.10;;
48987;SDS011;34799;51.440;-2.534;2023-11-18T06:56:24;1.33;;;0.10;;
48987;SDS011;34799;51.440;-2.534;2023-11-18T06:58:53;2.97;;;0.30;;
48987;SDS011;34799;51.440;-2.534;2023-11-18T07:01:20;2.38;;;0.10;;
48987;SDS011;34799;51.440;-2.534;2023-11-18T07:03:49;1.40;;;0.10;;
48987;SDS011;34799;51.440;-2.534;2023-11-18T07:06:19;1.38;;;0.20;;
48987;SDS011;34799;51.440;-2.534;2023-11-18T07:08:49;0.95;;;0.20;;
48987;SDS011;34799;51.440;-2.534;2023-11-18T07:11:17;0.80;;;0.20;;
48987;SDS011;34799;51.440;-2.534;2023-11-18T07:13:45;3.72;;;0.35;;
48987;SDS011;34799;51.440;-2.534;2023-11-18T07:16:15;1.15;;;0.13;;
48987;SDS011;34799;51.440;-2.534;2023-11-18T07:18:42;2.17;;;0.10;;
48987;SDS011;34799;51.440;-2.534;2023-11-18T07:21:09;1.88;;;0.28;;
48987;SDS011;34799;51.440;-2.534;2023-11-18T07:23:38;1.50;;;0.00;;
48987;SDS011;34799;51.440;-2.534;2023-11-18T07:26:06;2.92;;;0.20;;
48987;SDS011;34799;51.440;-2.534;2023-11-18T07:28:34;3.03;;;0.10;;
48987;SDS011;34799;51.440;-2.534;2023-11-18T07:31:02;1.33;;;0.20;;
48987;SDS011;34799;51.440;-2.534;2023-11-18T07:33:32;0.98;;;0.40;;
48987;SDS011;34799;51.440;-2.534;2023-11-18T07:36:00;0.82;;;0.10;;
48987;SDS011;34799;51.440;-2.534;2023-11-18T07:38:32;3.97;;;0.15;;
48987;SDS011;34799;51.440;-2.534;2023-11-18T07:41:01;0.98;;;0.20;;
48987;SDS011;34799;51.440;-2.534;2023-11-18T07:43:29;1.55;;;0.20;;
48987;SDS011;34799;51.440;-2.534;2023-11-18T07:45:57;1.58;;;0.20;;
48987;SDS011;34799;51.440;-2.534;2023-11-18T07:48:24;1.73;;;0.20;;
48987;SDS011;34799;51.440;-2.534;2023-11-18T07:50:52;1.70;;;0.20;;
48987;SDS011;34799;51.440;-2.534;2023-11-18T07:53:20;1.20;;;0.20;;
48987;SDS011;34799;51.440;-2.534;2023-11-18T07:55:48;1.50;;;0.17;;
48987;SDS011;34799;51.440;-2.534;2023-11-18T07:58:17;2.58;;;0.22;;
48987;SDS011;34799;51.440;-2.534;2023-11-18T08:00:46;0.88;;;0.17;;
48987;SDS011;34799;51.440;-2.534;2023-11-18T08:03:14;2.65;;;0.17;;
48987;SDS011;34799;51.440;-2.534;2023-11-18T08:05:43;1.80;;;0.10;;
48987;SDS011;34799;51.440;-2.534;2023-11-18T08:08:12;0.57;;;0.10;;
48987;SDS011;34799;51.440;-2.534;2023-11-18T08:10:40;0.22;;;0.05;;
48987;SDS011;34799;51.440;-2.534;2023-11-18T08:13:09;0.80;;;0.00;;
48987;SDS011;34799;51.440;-2.534;2023-11-18T08:15:39;0.65;;;0.28;;
48987;SDS011;34799;51.440;-2.534;2023-11-18T08:18:09;0.80;;;0.00;;
48987;SDS011;34799;51.440;-2.534;2023-11-18T08:20:37;1.02;;;0.00;;
48987;SDS011;34799;51.440;-2.534;2023-11-18T08:23:06;1.05;;;0.00;;
48987;SDS011;34799;51.440;-2.534;2023-11-18T08:25:34;0.20;;;0.00;;
48987;SDS011;34799;51.440;-2.534;2023-11-18T08:28:02;0.10;;;0.00;;
48987;SDS011;34799;51.440;-2.534;2023-11-18T08:30:32;0.77;;;0.00;;
48987;SDS011;34799;51.440;-2.534;2023-11-18T08:33:02;0.63;;;0.05;;
48987;SDS011;34799;51.440;-2.534;2023-11-18T08:35:36;1.73;;;0.00;;
48987;SDS011;34799;51.440;-2.534;2023-11-18T08:38:04;2.35;;;0.10;;
48987;SDS011;34799;51.440;-2.534;2023-11-18T08:40:33;0.73;;;0.00;;
48987;SDS011;34799;51.440;-2.534;2023-11-18T08:43:03;1.23;;;0.00;;
48987;SDS011;34799;51.440;-2.534;2023-11-18T08:45:34;0.28;;;0.00;;
48987;SDS011;34799;51.440;-2.534;2023-11-18T08:48:02;1.00;;;0.05;;
48987;SDS011;34799;51.440;-2.534;2023-11-18T08:50:35;1.02;;;0.00;;
48987;SDS011;34799;51.440;-2.534;2023-11-18T08:53:02;0.98;;;0.10;;
48987;SDS011;34799;51.440;-2.534;2023-11-18T08:55:36;2.63;;;0.00;;
48987;SDS011;34799;51.440;-2.534;2023-11-18T08:58:08;1.67;;;0.00;;
48987;SDS011;34799;51.440;-2.534;2023-11-18T09:00:46;1.33;;;0.00;;
48987;SDS011;34799;51.440;-2.534;2023-11-18T09:03:21;4.10;;;0.10;;
48987;SDS011;34799;51.440;-2.534;2023-11-18T09:06:17;1.52;;;0.47;;
48987;SDS011;34799;51.440;-2.534;2023-11-18T09:08:45;0.80;;;0.00;;
48987;SDS011;34799;51.440;-2.534;2023-11-18T09:11:19;0.05;;;0.00;;
48987;SDS011;34799;51.440;-2.534;2023-11-18T09:13:53;1.02;;;0.32;;
48987;SDS011;34799;51.440;-2.534;2023-11-18T09:16:21;0.75;;;0.28;;
48987;SDS011;34799;51.440;-2.534;2023-11-18T09:18:49;0.88;;;0.00;;
48987;SDS011;34799;51.440;-2.534;2023-11-18T09:21:18;1.50;;;0.00;;
48987;SDS011;34799;51.440;-2.534;2023-11-18T09:23:53;0.10;;;0.00;;
48987;SDS011;34799;51.440;-2.534;2023-11-18T09:26:23;0.30;;;0.03;;
48987;SDS011;34799;51.440;-2.534;2023-11-18T09:28:53;0.00;;;0.00;;
48987;SDS011;34799;51.440;-2.534;2023-11-18T09:31:20;0.05;;;0.00;;
48987;SDS011;34799;51.440;-2.534;2023-11-18T09:33:48;1.35;;;0.00;;
48987;SDS011;34799;51.440;-2.534;2023-11-18T09:36:20;2.60;;;0.10;;
48987;SDS011;34799;51.440;-2.534;2023-11-18T09:38:49;0.15;;;0.00;;
48987;SDS011;34799;51.440;-2.534;2023-11-18T09:41:16;0.00;;;0.00;;
48987;SDS011;34799;51.440;-2.534;2023-11-18T09:43:45;0.20;;;0.10;;
48987;SDS011;34799;51.440;-2.534;2023-11-18T09:46:19;1.45;;;0.00;;
48987;SDS011;34799;51.440;-2.534;2023-11-18T09:48:52;0.22;;;0.00;;
48987;SDS011;34799;51.440;-2.534;2023-11-18T09:51:27;0.00;;;0.00;;
48987;SDS011;34799;51.440;-2.534;2023-11-18T09:54:01;0.47;;;0.05;;
48987;SDS011;34799;51.440;-2.534;2023-11-18T10:02:40;0.50;;;0.00;;
48987;SDS011;34799;51.440;-2.534;2023-11-18T10:05:08;1.73;;;0.00;;
48987;SDS011;34799;51.440;-2.534;2023-11-18T10:07:39;2.20;;;0.00;;
48987;SDS011;34799;51.440;-2.534;2023-11-18T10:10:09;0.10;;;0.00;;
48987;SDS011;34799;51.440;-2.534;2023-11-18T10:12:42;0.50;;;0.10;;
48987;SDS011;34799;51.440;-2.534;2023-11-18T10:15:25;0.98;;;0.15;;
48987;SDS011;34799;51.440;-2.534;2023-11-18T10:17:58;2.33;;;0.20;;
48987;SDS011;34799;51.440;-2.534;2023-11-18T10:23:14;5.90;;;0.28;;
48987;SDS011;34799;51.440;-2.534;2023-11-18T10:25:52;1.70;;;0.10;;
48987;SDS011;34799;51.440;-2.534;2023-11-18T10:31:01;1.73;;;0.10;;
48987;SDS011;34799;51.440;-2.534;2023-11-18T10:33:35;1.88;;;0.10;;
48987;SDS011;34799;51.440;-2.534;2023-11-18T10:36:04;1.77;;;0.22;;
48987;SDS011;34799;51.440;-2.534;2023-11-18T10:38:39;2.30;;;0.10;;
48987;SDS011;34799;51.440;-2.534;2023-11-18T10:41:19;2.10;;;0.10;;
48987;SDS011;34799;51.440;-2.534;2023-11-18T10:43:47;1.80;;;0.00;;
48987;SDS011;34799;51.440;-2.534;2023-11-18T10:46:16;7.25;;;0.20;;
48987;SDS011;34799;51.440;-2.534;2023-11-18T10:48:50;2.42;;;0.20;;
48987;SDS011;34799;51.440;-2.534;2023-11-18T10:51:17;2.35;;;0.10;;
48987;SDS011;34799;51.440;-2.534;2023-11-18T10:53:53;2.00;;;0.20;;
48987;SDS011;34799;51.440;-2.534;2023-11-18T10:56:25;2.38;;;0.10;;
48987;SDS011;34799;51.440;-2.534;2023-11-18T10:58:55;2.33;;;0.10;;
48987;SDS011;34799;51.440;-2.534;2023-11-18T11:01:29;2.72;;;0.20;;
48987;SDS011;34799;51.440;-2.534;2023-11-18T11:04:01;2.08;;;0.20;;
48987;SDS011;34799;51.440;-2.534;2023-11-18T11:06:32;4.38;;;0.28;;
48987;SDS011;34799;51.440;-2.534;2023-11-18T11:09:01;2.70;;;0.22;;
48987;SDS011;34799;51.440;-2.534;2023-11-18T11:11:40;4.60;;;0.28;;
48987;SDS011;34799;51.440;-2.534;2023-11-18T11:14:14;3.75;;;0.55;;
48987;SDS011;34799;51.440;-2.534;2023-11-18T11:16:47;6.05;;;0.65;;
48987;SDS011;34799;51.440;-2.534;2023-11-18T11:19:42;4.60;;;0.57;;
48987;SDS011;34799;51.440;-2.534;2023-11-18T11:22:38;7.03;;;1.58;;
48987;SDS011;34799;51.440;-2.534;2023-11-18T11:30:49;7.07;;;0.50;;
48987;SDS011;34799;51.440;-2.534;2023-11-18T11:33:25;4.63;;;0.55;;
48987;SDS011;34799;51.440;-2.534;2023-11-18T11:36:09;8.43;;;1.00;;
48987;SDS011;34799;51.440;-2.534;2023-11-18T11:38:39;4.68;;;0.43;;
48987;SDS011;34799;51.440;-2.534;2023-11-18T11:41:06;11.02;;;0.93;;
48987;SDS011;34799;51.440;-2.534;2023-11-18T11:43:36;14.23;;;1.30;;
48987;SDS011;34799;51.440;-2.534;2023-11-18T11:46:04;7.82;;;0.85;;
48987;SDS011;34799;51.440;-2.534;2023-11-18T11:48:38;2.97;;;0.60;;
48987;SDS011;34799;51.440;-2.534;2023-11-18T11:56:56;11.05;;;0.95;;
48987;SDS011;34799;51.440;-2.534;2023-11-18T11:59:34;9.40;;;0.70;;
48987;SDS011;34799;51.440;-2.534;2023-11-18T12:02:04;7.10;;;0.82;;
48987;SDS011;34799;51.440;-2.534;2023-11-18T12:04:36;5.38;;;0.98;;
48987;SDS011;34799;51.440;-2.534;2023-11-18T12:07:05;7.97;;;0.55;;
48987;SDS011;34799;51.440;-2.534;2023-11-18T12:09:37;6.03;;;0.40;;
48987;SDS011;34799;51.440;-2.534;2023-11-18T12:12:05;5.03;;;0.68;;
48987;SDS011;34799;51.440;-2.534;2023-11-18T12:17:19;8.95;;;0.60;;
48987;SDS011;34799;51.440;-2.534;2023-11-18T12:19:49;9.38;;;1.10;;
48987;SDS011;34799;51.440;-2.534;2023-11-18T12:22:20;6.15;;;1.13;;
48987;SDS011;34799;51.440;-2.534;2023-11-18T12:35:27;5.78;;;0.55;;
48987;SDS011;34799;51.440;-2.534;2023-11-18T12:40:47;10.85;;;1.10;;
48987;SDS011;34799;51.440;-2.534;2023-11-18T12:48:48;11.07;;;2.15;;
48987;SDS011;34799;51.440;-2.534;2023-11-18T12:51:18;7.43;;;0.85;;
48987;SDS011;34799;51.440;-2.534;2023-11-18T12:53:47;14.18;;;1.30;;
48987;SDS011;34799;51.440;-2.534;2023-11-18T12:56:20;8.27;;;0.75;;
48987;SDS011;34799;51.440;-2.534;2023-11-18T12:58:47;7.13;;;0.95;;
48987;SDS011;34799;51.440;-2.534;2023-11-18T13:01:14;11.02;;;1.70;;
48987;SDS011;34799;51.440;-2.534;2023-11-18T13:03:43;8.25;;;1.38;;
48987;SDS011;34799;51.440;-2.534;2023-11-18T13:06:11;11.00;;;1.33;;
48987;SDS011;34799;51.440;-2.534;2023-11-18T13:08:39;12.55;;;1.50;;
48987;SDS011;34799;51.440;-2.534;2023-11-18T13:11:07;9.43;;;1.40;;
48987;SDS011;34799;51.440;-2.534;2023-11-18T13:13:42;9.23;;;1.92;;
48987;SDS011;34799;51.440;-2.534;2023-11-18T13:16:09;11.30;;;1.60;;
48987;SDS011;34799;51.440;-2.534;2023-11-18T13:18:43;11.57;;;1.35;;
48987;SDS011;34799;51.440;-2.534;2023-11-18T13:21:16;14.73;;;1.65;;
48987;SDS011;34799;51.440;-2.534;2023-11-18T13:23:47;12.68;;;2.13;;
48987;SDS011;34799;51.440;-2.534;2023-11-18T13:26:18;9.50;;;1.58;;
48987;SDS011;34799;51.440;-2.534;2023-11-18T13:28:47;13.77;;;1.58;;
48987;SDS011;34799;51.440;-2.534;2023-11-18T13:31:16;12.77;;;1.67;;
48987;SDS011;34799;51.440;-2.534;2023-11-18T13:33:48;14.35;;;2.10;;
48987;SDS011;34799;51.440;-2.534;2023-11-18T13:36:16;14.02;;;1.50;;
48987;SDS011;34799;51.440;-2.534;2023-11-18T13:38:47;16.98;;;2.58;;
48987;SDS011;34799;51.440;-2.534;2023-11-18T13:41:31;14.73;;;2.20;;
48987;SDS011;34799;51.440;-2.534;2023-11-18T13:43:58;10.88;;;1.52;;
48987;SDS011;34799;51.440;-2.534;2023-11-18T13:46:27;13.80;;;2.35;;
48987;SDS011;34799;51.440;-2.534;2023-11-18T13:48:56;15.15;;;1.33;;
48987;SDS011;34799;51.440;-2.534;2023-11-18T13:51:26;12.52;;;1.30;;
48987;SDS011;34799;51.440;-2.534;2023-11-18T13:53:54;16.25;;;1.65;;
48987;SDS011;34799;51.440;-2.534;2023-11-18T13:56:23;16.85;;;2.20;;
48987;SDS011;34799;51.440;-2.534;2023-11-18T13:58:50;15.82;;;2.20;;
48987;SDS011;34799;51.440;-2.534;2023-11-18T14:01:18;12.13;;;1.75;;
48987;SDS011;34799;51.440;-2.534;2023-11-18T14:03:48;13.10;;;1.85;;
48987;SDS011;34799;51.440;-2.534;2023-11-18T14:06:16;13.80;;;1.58;;
48987;SDS011;34799;51.440;-2.534;2023-11-18T14:08:44;14.93;;;1.92;;
48987;SDS011;34799;51.440;-2.534;2023-11-18T14:11:11;13.60;;;1.88;;
48987;SDS011;34799;51.440;-2.534;2023-11-18T14:13:40;12.93;;;1.85;;
48987;SDS011;34799;51.440;-2.534;2023-11-18T14:16:08;13.68;;;1.67;;
48987;SDS011;34799;51.440;-2.534;2023-11-18T14:18:36;12.93;;;1.83;;
48987;SDS011;34799;51.440;-2.534;2023-11-18T14:21:03;13.57;;;1.67;;
48987;SDS011;34799;51.440;-2.534;2023-11-18T14:23:32;14.98;;;1.40;;
48987;SDS011;34799;51.440;-2.534;2023-11-18T14:25:59;17.85;;;2.38;;
48987;SDS011;34799;51.440;-2.534;2023-11-18T14:28:26;12.80;;;1.90;;
48987;SDS011;34799;51.440;-2.534;2023-11-18T14:30:54;16.60;;;2.25;;
48987;SDS011;34799;51.440;-2.534;2023-11-18T14:33:22;12.02;;;2.00;;
48987;SDS011;34799;51.440;-2.534;2023-11-18T14:35:50;15.10;;;1.38;;
48987;SDS011;34799;51.440;-2.534;2023-11-18T14:38:18;12.75;;;2.00;;
48987;SDS011;34799;51.440;-2.534;2023-11-18T14:40:47;13.95;;;1.80;;
48987;SDS011;34799;51.440;-2.534;2023-11-18T14:43:15;16.13;;;1.65;;
48987;SDS011;34799;51.440;-2.534;2023-11-18T14:45:43;20.63;;;2.85;;
48987;SDS011;34799;51.440;-2.534;2023-11-18T14:48:11;17.58;;;1.85;;
48987;SDS011;34799;51.440;-2.534;2023-11-18T14:50:40;13.65;;;2.25;;
48987;SDS011;34799;51.440;-2.534;2023-11-18T14:53:08;14.98;;;1.92;;
48987;SDS011;34799;51.440;-2.534;2023-11-18T14:55:36;16.35;;;1.95;;
48987;SDS011;34799;51.440;-2.534;2023-11-18T14:58:03;17.10;;;2.78;;
48987;SDS011;34799;51.440;-2.534;2023-11-18T15:00:33;14.60;;;2.72;;
48987;SDS011;34799;51.440;-2.534;2023-11-18T15:03:00;11.32;;;2.03;;
48987;SDS011;34799;51.440;-2.534;2023-11-18T15:05:28;17.00;;;2.70;;
48987;SDS011;34799;51.440;-2.534;2023-11-18T15:07:55;15.30;;;1.90;;
48987;SDS011;34799;51.440;-2.534;2023-11-18T15:10:24;12.35;;;1.75;;
48987;SDS011;34799;51.440;-2.534;2023-11-18T15:12:56;16.35;;;2.97;;
48987;SDS011;34799;51.440;-2.534;2023-11-18T15:15:28;18.20;;;1.92;;
48987;SDS011;34799;51.440;-2.534;2023-11-18T15:17:58;22.05;;;2.65;;
48987;SDS011;34799;51.440;-2.534;2023-11-18T15:20:30;17.23;;;2.72;;
48987;SDS011;34799;51.440;-2.534;2023-11-18T15:22:57;14.38;;;2.08;;
48987;SDS011;34799;51.440;-2.534;2023-11-18T15:25:25;21.30;;;3.10;;
48987;SDS011;34799;51.440;-2.534;2023-11-18T15:27:54;15.90;;;2.03;;
48987;SDS011;34799;51.440;-2.534;2023-11-18T15:30:22;22.20;;;2.67;;
48987;SDS011;34799;51.440;-2.534;2023-11-18T15:32:52;17.63;;;2.42;;
48987;SDS011;34799;51.440;-2.534;2023-11-18T15:35:19;19.00;;;2.42;;